createdAt,value
2019-03-05T00:02:18.574Z,98873.22
2019-03-05T00:04:48.083Z,98870.60
2019-03-05T00:07:17.590Z,98883.56
2019-03-05T00:09:47.146Z,98885.31
2019-03-05T00:12:16.644Z,98890.91
2019-03-05T00:14:46.169Z,98888.33
2019-03-05T00:17:15.709Z,98886.17
2019-03-05T00:19:45.298Z,98885.73
2019-03-05T00:22:14.826Z,98885.75
2019-03-05T00:25:02.582Z,98887.48
2019-03-05T00:27:34.508Z,98876.23
2019-03-05T00:30:31.115Z,98897.84
2019-03-05T00:33:29.538Z,98893.94
2019-03-05T00:36:18.469Z,98892.62
2019-03-05T00:39:22.906Z,98899.98
2019-03-05T00:42:50.789Z,98900.81
2019-03-05T00:45:33.810Z,98894.77
2019-03-05T00:48:39.889Z,98907.73
2019-03-05T00:51:49.086Z,98883.97
2019-03-05T00:55:04.365Z,98904.25
2019-03-05T00:57:49.746Z,98896.47
2019-03-05T01:00:32.717Z,98899.06
2019-03-05T01:03:29.518Z,98899.92
2019-03-05T01:06:21.582Z,98903.81
2019-03-05T01:08:51.262Z,98904.68
2019-03-05T01:11:21.886Z,98898.20
2019-03-05T01:13:51.503Z,98891.24
2019-03-05T01:16:23.006Z,98899.02
2019-03-05T01:18:52.514Z,98882.59
2019-03-05T01:21:22.112Z,98897.30
2019-03-05T01:23:51.629Z,98892.97
2019-03-05T01:26:21.139Z,98890.41
2019-03-05T01:28:50.700Z,98881.77
2019-03-05T01:31:32.018Z,98885.69
2019-03-05T01:34:03.184Z,98890.02
2019-03-05T01:36:34.329Z,98887.02
2019-03-05T01:39:22.551Z,98886.58
2019-03-05T01:41:52.054Z,98886.16
2019-03-05T01:44:21.581Z,98887.90
2019-03-05T01:46:51.306Z,98888.34
2019-03-05T01:49:20.799Z,98895.66
2019-03-05T01:51:50.388Z,98901.28
2019-03-05T01:54:19.921Z,98889.62
2019-03-05T01:56:49.433Z,98896.94
2019-03-05T01:59:18.946Z,98901.27
2019-03-05T02:01:48.486Z,98908.16
2019-03-05T02:04:17.998Z,98913.34
2019-03-05T02:06:47.778Z,98903.36
2019-03-05T02:09:18.396Z,98906.39
2019-03-05T02:11:47.908Z,98908.52
2019-03-05T02:14:17.420Z,98915.85
2019-03-05T02:16:46.955Z,98912.38
2019-03-05T02:19:43.199Z,98918.42
2019-03-05T02:22:20.854Z,98912.38
2019-03-05T02:25:13.513Z,98918.03
2019-03-05T02:28:02.878Z,98916.31
2019-03-05T02:30:48.759Z,98922.84
2019-03-05T02:34:16.279Z,98924.14
2019-03-05T02:37:07.418Z,98924.13
2019-03-05T02:39:56.521Z,98928.41
2019-03-05T02:42:45.952Z,98917.63
2019-03-05T02:45:32.459Z,98921.48
2019-03-05T02:48:18.770Z,98922.34
2019-03-05T02:50:58.668Z,98927.49
2019-03-05T02:53:55.757Z,98921.88
2019-03-05T02:56:45.367Z,98922.70
2019-03-05T02:59:13.303Z,98920.52
2019-03-05T03:01:50.454Z,98927.42
2019-03-05T03:04:24.307Z,98927.41
2019-03-05T03:06:53.884Z,98919.64
2019-03-05T03:09:31.335Z,98918.80
2019-03-05T03:12:00.849Z,98930.45
2019-03-05T03:14:30.370Z,98930.03
2019-03-05T03:16:59.892Z,98928.32
2019-03-05T03:19:29.424Z,98927.46
2019-03-05T03:21:58.927Z,98930.53
2019-03-05T03:24:28.457Z,98933.14
2019-03-05T03:26:57.977Z,98933.14
2019-03-05T03:29:27.499Z,98932.34
2019-03-05T03:31:57.074Z,98938.38
2019-03-05T03:34:26.610Z,98935.37
2019-03-05T03:36:56.283Z,98934.95
2019-03-05T03:39:25.908Z,98932.78
2019-03-05T03:41:55.412Z,98935.82
2019-03-05T03:44:25.143Z,98930.66
2019-03-05T03:46:54.633Z,98945.34
2019-03-05T03:49:24.145Z,98938.02
2019-03-05T03:51:53.721Z,98946.63
2019-03-05T03:54:23.190Z,98941.90
2019-03-05T03:56:52.802Z,98955.70
2019-03-05T03:59:22.454Z,98947.94
2019-03-05T04:01:51.984Z,98949.23
2019-03-05T04:04:21.578Z,98956.16
2019-03-05T04:06:51.327Z,98959.59
2019-03-05T04:09:20.858Z,98975.15
2019-03-05T04:11:50.373Z,98972.56
2019-03-05T04:14:19.880Z,98974.30
2019-03-05T04:16:49.413Z,98968.68
2019-03-05T04:19:20.568Z,98971.24
2019-03-05T04:21:50.446Z,98969.09
2019-03-05T04:24:20.037Z,98967.36
2019-03-05T04:26:49.550Z,98964.77
2019-03-05T04:29:19.082Z,98967.36
2019-03-05T04:31:48.623Z,98966.06
2019-03-05T04:34:18.267Z,98980.34
2019-03-05T04:36:47.781Z,98971.25
2019-03-05T04:39:17.292Z,98977.73
2019-03-05T04:41:46.829Z,98973.41
2019-03-05T04:44:17.989Z,98974.71
2019-03-05T04:46:49.396Z,98980.33
2019-03-05T04:49:26.799Z,98989.41
2019-03-05T04:52:07.060Z,98982.05
2019-03-05T04:54:36.576Z,98992.86
2019-03-05T04:57:06.162Z,98988.54
2019-03-05T04:59:35.688Z,98988.53
2019-03-05T05:02:05.278Z,98990.69
2019-03-05T05:04:34.802Z,98996.77
2019-03-05T05:07:04.560Z,98986.40
2019-03-05T05:09:34.076Z,98988.98
2019-03-05T05:12:03.614Z,98994.17
2019-03-05T05:14:33.120Z,98992.44
2019-03-05T05:17:02.668Z,98992.00
2019-03-05T05:19:32.215Z,99004.11
2019-03-05T05:22:01.707Z,98997.19
2019-03-05T05:24:31.308Z,99015.34
2019-03-05T05:27:00.832Z,99003.67
2019-03-05T05:29:30.355Z,99020.09
2019-03-05T05:31:59.885Z,99015.34
2019-03-05T05:34:29.417Z,99024.41
2019-03-05T05:36:58.957Z,99022.69
2019-03-05T05:40:20.247Z,99024.41
2019-03-05T05:42:49.783Z,99028.29
2019-03-05T05:45:23.794Z,99031.34
2019-03-05T05:47:53.371Z,99036.96
2019-03-05T05:50:22.919Z,99039.11
2019-03-05T05:52:52.444Z,99027.45
2019-03-05T05:55:22.152Z,99042.56
2019-03-05T05:57:51.924Z,99041.27
2019-03-05T06:00:21.449Z,99047.75
2019-03-05T06:02:50.960Z,99065.91
2019-03-05T06:05:20.485Z,99052.08
2019-03-05T06:07:50.181Z,99059.42
2019-03-05T06:10:19.778Z,99063.76
2019-03-05T06:12:49.396Z,99068.94
2019-03-05T06:15:20.473Z,99064.18
2019-03-05T06:17:49.996Z,99069.80
2019-03-05T06:20:19.690Z,99071.95
2019-03-05T06:22:49.210Z,99075.84
2019-03-05T06:25:18.860Z,99085.79
2019-03-05T06:27:48.402Z,99087.95
2019-03-05T06:30:26.981Z,99082.32
2019-03-05T06:32:56.512Z,99091.40
2019-03-05T06:35:26.110Z,99074.98
2019-03-05T06:37:55.707Z,99093.58
2019-03-05T06:40:28.072Z,99095.27
2019-03-05T06:42:57.639Z,99102.63
2019-03-05T06:45:27.184Z,99101.77
2019-03-05T06:47:56.968Z,99106.96
2019-03-05T06:50:28.387Z,99118.20
2019-03-05T06:52:57.989Z,99118.64
2019-03-05T06:55:27.580Z,99116.07
2019-03-05T06:57:57.108Z,99121.67
2019-03-05T07:00:34.229Z,99128.17
2019-03-05T07:03:05.886Z,99122.14
2019-03-05T07:06:30.298Z,99139.36
2019-03-05T07:09:04.927Z,99137.10
2019-03-05T07:12:01.381Z,99147.05
2019-03-05T07:14:44.408Z,99149.19
2019-03-05T07:17:30.332Z,99145.66
2019-03-05T07:20:35.845Z,99141.70
2019-03-05T07:23:21.725Z,99138.13
2019-03-05T07:25:51.295Z,99151.80
2019-03-05T07:28:20.811Z,99154.06
2019-03-05T07:30:50.387Z,99161.86
2019-03-05T07:33:19.960Z,99170.13
2019-03-05T07:35:49.484Z,99169.33
2019-03-05T07:38:19.024Z,99183.38
2019-03-05T07:40:48.552Z,99164.87
2019-03-05T07:43:19.636Z,99169.65
2019-03-05T07:45:49.156Z,99169.50
2019-03-05T07:48:18.683Z,99171.83
2019-03-05T07:50:48.240Z,99172.52
2019-03-05T07:53:17.758Z,99172.63
2019-03-05T07:55:47.546Z,99182.69
2019-03-05T07:58:17.072Z,99146.72
2019-03-05T08:00:46.596Z,99176.81
2019-03-05T08:03:16.144Z,99176.79
2019-03-05T08:05:47.524Z,99183.53
2019-03-05T08:09:12.888Z,99189.09
2019-03-05T08:11:42.454Z,99179.67
2019-03-05T08:14:26.258Z,99192.58
2019-03-05T08:16:55.840Z,99193.92
2019-03-05T08:19:25.395Z,99196.13
2019-03-05T08:21:55.415Z,99212.84
2019-03-05T08:24:24.992Z,99207.11
2019-03-05T08:26:54.600Z,99231.23
2019-03-05T08:29:24.241Z,99206.69
2019-03-05T08:31:53.791Z,99232.11
2019-03-05T08:34:23.349Z,99237.36
2019-03-05T08:36:52.987Z,99222.73
2019-03-05T08:39:22.547Z,99245.42
2019-03-05T08:41:52.093Z,99244.23
2019-03-05T08:44:21.982Z,99252.11
2019-03-05T08:46:51.528Z,99235.33
2019-03-05T08:49:21.105Z,99247.92
2019-03-05T08:51:51.009Z,99241.03
2019-03-05T08:54:20.564Z,99259.95
2019-03-05T08:56:50.123Z,99254.24
2019-03-05T08:59:19.713Z,99261.02
2019-03-05T09:01:49.343Z,99251.28
2019-03-05T09:04:18.897Z,99253.58
2019-03-05T09:06:49.345Z,99252.66
2019-03-05T09:09:19.447Z,99266.84
2019-03-05T09:11:49.018Z,99264.35
2019-03-05T09:14:18.572Z,99266.77
2019-03-05T09:16:48.280Z,99270.81
2019-03-05T09:19:17.889Z,99272.81
2019-03-05T09:21:49.246Z,99270.74
2019-03-05T09:24:18.905Z,99273.88
2019-03-05T09:26:51.579Z,99276.05
2019-03-05T09:29:19.902Z,99275.91
2019-03-05T09:31:49.450Z,99289.84
2019-03-05T09:34:19.018Z,99278.77
2019-03-05T09:36:51.188Z,99288.08
2019-03-05T09:39:20.312Z,99300.09
2019-03-05T09:41:49.930Z,99293.52
2019-03-05T09:44:19.508Z,99297.63
2019-03-05T09:46:49.065Z,99312.91
2019-03-05T09:49:18.804Z,99308.63
2019-03-05T09:51:48.353Z,99310.16
2019-03-05T09:54:17.904Z,99319.21
2019-03-05T09:56:47.627Z,99315.00
2019-03-05T09:59:17.180Z,99323.16
2019-03-05T10:01:48.442Z,99329.62
2019-03-05T10:04:18.024Z,99341.95
2019-03-05T10:06:47.645Z,99338.70
2019-03-05T10:09:17.586Z,99344.18
2019-03-05T10:11:47.128Z,99348.30
2019-03-05T10:14:16.695Z,99357.20
2019-03-05T10:16:46.249Z,99365.59
2019-03-05T10:19:15.795Z,99360.37
2019-03-05T10:21:46.670Z,99346.42
2019-03-05T10:24:16.446Z,99368.48
2019-03-05T10:26:46.071Z,99356.86
2019-03-05T10:29:15.792Z,99353.30
2019-03-05T10:31:45.349Z,99357.71
2019-03-05T10:34:14.900Z,99352.78
2019-03-05T10:36:44.742Z,99367.28
2019-03-05T10:39:30.371Z,99359.84
2019-03-05T10:41:55.619Z,99356.76
2019-03-05T10:44:25.242Z,99358.72
2019-03-05T10:46:56.133Z,99362.97
2019-03-05T10:49:26.578Z,99352.91
2019-03-05T10:51:58.791Z,99353.48
2019-03-05T10:54:28.145Z,99366.05
2019-03-05T10:56:57.728Z,99358.00
2019-03-05T10:59:27.345Z,99373.23
2019-03-05T11:01:57.241Z,99353.55
2019-03-05T11:04:27.208Z,99352.45
2019-03-05T11:06:56.886Z,99364.34
2019-03-05T11:09:26.462Z,99365.69
2019-03-05T11:11:56.092Z,99354.31
2019-03-05T11:14:25.815Z,99367.89
2019-03-05T11:16:55.935Z,99365.09
2019-03-05T11:19:25.516Z,99371.58
2019-03-05T11:21:55.093Z,99380.12
2019-03-05T11:24:24.660Z,99381.19
2019-03-05T11:26:54.308Z,99377.33
2019-03-05T11:29:23.869Z,99381.69
2019-03-05T11:31:53.436Z,99362.57
2019-03-05T11:34:23.121Z,99378.55
2019-03-05T11:36:52.725Z,99385.75
2019-03-05T11:39:22.365Z,99383.10
2019-03-05T11:41:51.935Z,99377.80
2019-03-05T11:44:21.570Z,99371.65
2019-03-05T11:46:51.126Z,99365.15
2019-03-05T11:49:20.749Z,99372.67
2019-03-05T11:51:50.493Z,99376.67
2019-03-05T11:54:21.321Z,99381.11
2019-03-05T11:56:51.838Z,99382.11
2019-03-05T11:59:21.398Z,99381.75
2019-03-05T12:01:51.169Z,99380.59
2019-03-05T12:04:20.745Z,99387.67
2019-03-05T12:06:50.380Z,99403.36
2019-03-05T12:09:20.114Z,99401.27
2019-03-05T12:11:49.743Z,99397.45
2019-03-05T12:14:19.340Z,99407.92
2019-03-05T12:16:48.875Z,99411.02
2019-03-05T12:19:18.415Z,99401.97
2019-03-05T12:21:48.272Z,99416.77
2019-03-05T12:24:19.990Z,99417.67
2019-03-05T12:26:49.160Z,99416.82
2019-03-05T12:29:18.743Z,99412.48
2019-03-05T12:31:48.296Z,99415.06
2019-03-05T12:34:17.856Z,99421.03
2019-03-05T12:36:47.441Z,99413.61
2019-03-05T12:39:20.082Z,99408.33
2019-03-05T12:41:49.616Z,99413.91
2019-03-05T12:44:19.191Z,99405.20
2019-03-05T12:46:48.783Z,99406.10
2019-03-05T12:49:18.473Z,99402.67
2019-03-05T12:51:48.159Z,99398.75
2019-03-05T12:54:17.715Z,99395.20
2019-03-05T12:56:48.601Z,99396.95
2019-03-05T12:59:18.164Z,99400.45
2019-03-05T13:01:47.739Z,99397.48
2019-03-05T13:04:17.348Z,99403.13
2019-03-05T13:06:46.981Z,99406.95
2019-03-05T13:09:19.511Z,99425.99
2019-03-05T13:11:49.890Z,99414.77
2019-03-05T13:14:20.557Z,99431.35
2019-03-05T13:16:50.227Z,99435.70
2019-03-05T13:19:19.856Z,99432.22
2019-03-05T13:21:50.228Z,99425.69
2019-03-05T13:24:19.863Z,99426.13
2019-03-05T13:26:49.526Z,99433.52
2019-03-05T13:29:20.512Z,99428.68
2019-03-05T13:31:50.268Z,99426.05
2019-03-05T13:34:19.831Z,99429.51
2019-03-05T13:36:50.603Z,99429.91
2019-03-05T13:39:22.204Z,99437.77
2019-03-05T13:41:53.906Z,99435.60
2019-03-05T13:44:33.918Z,99436.90
2019-03-05T13:47:05.590Z,99447.72
2019-03-05T13:50:11.359Z,99447.98
2019-03-05T13:52:48.144Z,99435.63
2019-03-05T13:55:31.164Z,99443.34
2019-03-05T13:58:40.186Z,99446.75
2019-03-05T14:01:10.983Z,99461.28
2019-03-05T14:03:53.394Z,99452.87
2019-03-05T14:06:56.486Z,99446.06
2019-03-05T14:09:24.471Z,99466.63
2019-03-05T14:11:54.454Z,99471.94
2019-03-05T14:14:26.652Z,99473.72
2019-03-05T14:16:58.244Z,99466.81
2019-03-05T14:19:29.442Z,99479.41
2019-03-05T14:21:59.142Z,99472.49
2019-03-05T14:24:28.774Z,99485.92
2019-03-05T14:26:58.791Z,99481.61
2019-03-05T14:29:29.436Z,99482.04
2019-03-05T14:32:00.115Z,99485.09
2019-03-05T14:34:31.076Z,99492.02
2019-03-05T14:37:00.860Z,99492.88
2019-03-05T14:39:33.847Z,99495.91
2019-03-05T14:42:05.932Z,99496.78
2019-03-05T14:44:39.936Z,99496.80
2019-03-05T14:47:07.611Z,99503.28
2019-03-05T14:49:37.169Z,99496.31
2019-03-05T14:52:07.503Z,99505.40
2019-03-05T14:54:37.118Z,99516.25
2019-03-05T14:57:06.812Z,99511.02
2019-03-05T14:59:36.537Z,99517.95
2019-03-05T15:02:06.271Z,99522.70
2019-03-05T15:04:35.886Z,99523.56
2019-03-05T15:07:05.650Z,99528.77
2019-03-05T15:09:35.218Z,99527.50
2019-03-05T15:12:04.881Z,99530.55
2019-03-05T15:14:34.654Z,99533.58
2019-03-05T15:17:04.930Z,99534.02
2019-03-05T15:19:34.816Z,99533.61
2019-03-05T15:22:04.608Z,99531.44
2019-03-05T15:24:34.212Z,99550.97
2019-03-05T15:27:03.811Z,99548.38
2019-03-05T15:29:33.400Z,99551.85
2019-03-05T15:32:03.062Z,99566.59
2019-03-05T15:34:32.680Z,99571.35
2019-03-05T15:37:02.275Z,99567.47
2019-03-05T15:39:31.926Z,99565.70
2019-03-05T15:42:01.527Z,99576.95
2019-03-05T15:44:31.139Z,99581.17
2019-03-05T15:47:00.710Z,99583.70
2019-03-05T15:49:30.359Z,99581.45
2019-03-05T15:52:00.075Z,99584.41
2019-03-05T15:54:29.601Z,99586.45
2019-03-05T15:56:59.167Z,99581.61
2019-03-05T15:59:28.958Z,99575.48
2019-03-05T16:01:58.696Z,99592.30
2019-03-05T16:04:28.238Z,99592.66
2019-03-05T16:06:57.878Z,99599.13
2019-03-05T16:09:27.488Z,99591.72
2019-03-05T16:11:57.028Z,99602.01
2019-03-05T16:14:29.655Z,99618.35
2019-03-05T16:16:57.963Z,99616.50
2019-03-05T16:19:27.484Z,99631.57
2019-03-05T16:21:57.471Z,99639.31
2019-03-05T16:24:27.009Z,99663.96
2019-03-05T16:26:56.975Z,99683.91
2019-03-05T16:29:27.450Z,99712.56
2019-03-05T16:32:07.703Z,99728.55
2019-03-05T16:34:48.000Z,99710.05
2019-03-05T16:37:24.956Z,99713.11
2019-03-05T16:40:05.182Z,99716.76
2019-03-05T16:42:53.095Z,99724.80
2019-03-05T16:45:39.670Z,99722.64
2019-03-05T16:48:20.034Z,99716.92
2019-03-05T16:50:51.299Z,99726.78
2019-03-05T16:53:28.256Z,99724.55
2019-03-05T16:56:15.603Z,99722.31
2019-03-05T16:58:44.986Z,99726.94
2019-03-05T17:01:16.254Z,99744.18
2019-03-05T17:03:49.972Z,99727.44
2019-03-05T17:06:24.187Z,99726.73
2019-03-05T17:08:58.176Z,99734.60
2019-03-05T17:11:38.430Z,99739.50
2019-03-05T17:14:08.360Z,99740.86
2019-03-05T17:16:37.915Z,99751.65
2019-03-05T17:19:07.723Z,99749.42
2019-03-05T17:21:37.370Z,99757.55
2019-03-05T17:24:07.769Z,99763.83
2019-03-05T17:26:37.448Z,99773.17
2019-03-05T17:29:07.679Z,99785.55
2019-03-05T17:31:37.231Z,99781.91
2019-03-05T17:34:06.844Z,99788.29
2019-03-05T17:36:36.415Z,99798.97
2019-03-05T17:39:09.712Z,99809.23
2019-03-05T17:41:39.253Z,99818.58
2019-03-05T17:44:08.963Z,99827.95
2019-03-05T17:46:40.206Z,99827.47
2019-03-05T17:49:09.747Z,99834.71
2019-03-05T17:51:39.425Z,99848.37
2019-03-05T17:54:09.040Z,99849.15
2019-03-05T17:56:38.622Z,99860.27
2019-03-05T17:59:08.756Z,99870.01
2019-03-05T18:01:38.335Z,99870.73
2019-03-05T18:04:08.018Z,99883.06
2019-03-05T18:06:37.562Z,99882.45
2019-03-05T18:09:09.711Z,99886.22
2019-03-05T18:11:39.353Z,99877.85
2019-03-05T18:14:09.092Z,99894.95
2019-03-05T18:16:38.632Z,99900.42
2019-03-05T18:19:08.203Z,99900.71
2019-03-05T18:21:38.074Z,99910.13
2019-03-05T18:24:07.691Z,99912.26
2019-03-05T18:26:37.264Z,99916.97
2019-03-05T18:29:06.807Z,99919.63
2019-03-05T18:31:36.388Z,99927.92
2019-03-05T18:34:06.456Z,99931.47
2019-03-05T18:36:36.294Z,99937.59
2019-03-05T18:39:06.274Z,99937.80
2019-03-05T18:41:35.807Z,99933.36
2019-03-05T18:44:06.513Z,99946.09
2019-03-05T18:46:36.140Z,99947.17
2019-03-05T18:49:05.786Z,99946.06
2019-03-05T18:51:35.337Z,99951.35
2019-03-05T18:54:05.157Z,99954.81
2019-03-05T18:56:34.711Z,99954.47
2019-03-05T18:59:04.321Z,99964.55
2019-03-05T19:01:34.000Z,99974.59
2019-03-05T19:04:03.611Z,99975.08
2019-03-05T19:06:33.186Z,99970.70
2019-03-05T19:09:02.974Z,99971.55
2019-03-05T19:11:32.635Z,99982.27
2019-03-05T19:14:02.182Z,99974.28
2019-03-05T19:16:31.724Z,99984.90
2019-03-05T19:19:01.371Z,99995.09
2019-03-05T19:21:31.014Z,100002.31
2019-03-05T19:24:00.574Z,100004.84
2019-03-05T19:26:30.123Z,100012.83
2019-03-05T19:28:59.795Z,100011.70
2019-03-05T19:31:29.406Z,100017.45
2019-03-05T19:33:58.965Z,100025.95
2019-03-05T19:36:28.903Z,100029.24
2019-03-05T19:38:58.467Z,100032.24
2019-03-05T19:41:28.042Z,100042.58
2019-03-05T19:43:57.864Z,100037.31
2019-03-05T19:46:27.564Z,100044.98
2019-03-05T19:48:57.125Z,100046.31
2019-03-05T19:51:26.669Z,100054.03
2019-03-05T19:53:57.802Z,100056.56
2019-03-05T19:56:27.575Z,100060.07
2019-03-05T19:58:57.172Z,100061.36
2019-03-05T20:01:28.526Z,100055.65
2019-03-05T20:03:58.110Z,100065.43
2019-03-05T20:06:27.761Z,100067.00
2019-03-05T20:08:57.361Z,100073.31
2019-03-05T20:11:27.011Z,100082.31
2019-03-05T20:13:56.628Z,100081.33
2019-03-05T20:16:28.019Z,100086.27
2019-03-05T20:18:57.574Z,100088.19
2019-03-05T20:21:27.207Z,100098.69
2019-03-05T20:23:56.818Z,100100.70
2019-03-05T20:26:26.438Z,100105.77
2019-03-05T20:28:56.002Z,100114.66
2019-03-05T20:31:25.583Z,100112.34
2019-03-05T20:33:55.218Z,100116.15
2019-03-05T20:36:24.801Z,100114.81
2019-03-05T20:38:54.369Z,100121.67
2019-03-05T20:41:23.918Z,100124.98
2019-03-05T20:43:53.487Z,100126.59
2019-03-05T20:46:23.516Z,100126.05
2019-03-05T20:48:53.206Z,100128.89
2019-03-05T20:51:22.956Z,100132.61
2019-03-05T20:53:52.514Z,100140.71
2019-03-05T20:56:22.244Z,100142.00
2019-03-05T20:58:51.853Z,100149.84
2019-03-05T21:01:21.564Z,100150.26
2019-03-05T21:03:51.235Z,100157.53
2019-03-05T21:06:21.098Z,100157.84
2019-03-05T21:08:50.872Z,100163.70
2019-03-05T21:11:20.436Z,100164.42
2019-03-05T21:13:50.180Z,100169.11
2019-03-05T21:16:19.759Z,100179.79
2019-03-05T21:18:49.636Z,100174.58
2019-03-05T21:21:19.260Z,100174.50
2019-03-05T21:23:48.811Z,100181.72
2019-03-05T21:26:18.394Z,100181.20
2019-03-05T21:28:47.974Z,100180.27
2019-03-05T21:31:17.695Z,100180.63
2019-03-05T21:33:51.900Z,100182.80
2019-03-05T21:36:21.276Z,100195.22
2019-03-05T21:38:50.833Z,100191.71
2019-03-05T21:41:20.723Z,100190.83
2019-03-05T21:43:50.295Z,100195.58
2019-03-05T21:46:20.010Z,100200.72
2019-03-05T21:48:49.616Z,100204.59
2019-03-05T21:51:19.162Z,100202.30
2019-03-05T21:53:48.710Z,100206.53
2019-03-05T21:56:18.300Z,100206.89
2019-03-05T21:58:47.920Z,100219.13
2019-03-05T22:01:17.553Z,100213.44
2019-03-05T22:03:47.657Z,100218.42
2019-03-05T22:06:17.216Z,100219.41
2019-03-05T22:08:46.862Z,100221.06
2019-03-05T22:11:16.422Z,100224.44
2019-03-05T22:13:46.143Z,100229.90
2019-03-05T22:16:15.980Z,100231.91
2019-03-05T22:18:45.555Z,100238.65
2019-03-05T22:21:15.103Z,100231.68
2019-03-05T22:23:44.846Z,100241.56
2019-03-05T22:26:14.419Z,100251.00
2019-03-05T22:28:45.115Z,100250.88
2019-03-05T22:31:14.691Z,100257.22
2019-03-05T22:33:44.261Z,100252.70
2019-03-05T22:36:13.893Z,100254.33
2019-03-05T22:38:43.446Z,100252.05
2019-03-05T22:41:13.034Z,100254.52
2019-03-05T22:43:43.076Z,100268.16
2019-03-05T22:46:12.631Z,100268.86
2019-03-05T22:48:42.219Z,100268.38
2019-03-05T22:51:11.938Z,100269.08
2019-03-05T22:53:41.511Z,100272.88
2019-03-05T22:56:11.146Z,100276.22
2019-03-05T22:58:40.733Z,100279.96
2019-03-05T23:01:13.807Z,100281.16
2019-03-05T23:03:44.499Z,100285.84
2019-03-05T23:06:14.147Z,100292.17
2019-03-05T23:08:43.769Z,100291.23
2019-03-05T23:11:13.521Z,100293.75
2019-03-05T23:13:43.419Z,100296.38
2019-03-05T23:16:14.023Z,100299.66
2019-03-05T23:18:43.574Z,100304.34
2019-03-05T23:21:13.545Z,100310.78
2019-03-05T23:23:43.115Z,100296.27
2019-03-05T23:26:13.547Z,100296.80
2019-03-05T23:28:43.965Z,100301.59
2019-03-05T23:31:13.967Z,100305.88
2019-03-05T23:33:43.529Z,100300.25
2019-03-05T23:36:13.322Z,100307.50
2019-03-05T23:38:42.926Z,100310.38
2019-03-05T23:41:12.668Z,100310.72
2019-03-05T23:43:42.294Z,100321.81
2019-03-05T23:46:11.925Z,100320.81
2019-03-05T23:48:41.547Z,100328.00
2019-03-05T23:51:11.148Z,100320.03
2019-03-05T23:53:40.697Z,100323.73
2019-03-05T23:56:10.263Z,100331.41
2019-03-05T23:58:39.823Z,100327.06
